Time;durP1;ratioP1;P1;durP2;ratioP2;P2;SDS_P1;SDS_P2;PMS_P1;PMS_P2;Temp;Humidity;BMP_temperature;BMP_pressure;BME280_temperature;BME280_humidity;BME280_pressure;Samples;Min_cycle;Max_cycle;Signal;HPM_P1;HPM_P2
2023/02/10 00:02:24;;;;;;;;;;;;;;;-13.30;88.40;99367.07;110121;1240;69815;-71
2023/02/10 00:04:53;;;;;;;38.70;24.10;;;;;;;-13.32;87.91;99361.90;110137;1244;58954;-71
2023/02/10 00:07:23;;;;;;;43.40;23.10;;;;;;;-13.36;87.62;99362.23;110189;1248;58891;-71
2023/02/10 00:09:52;;;;;;;45.90;25.10;;;;;;;-13.39;84.31;99357.73;110116;1242;71017;-71
2023/02/10 00:12:22;;;;;;;39.10;25.00;;;;;;;-13.40;84.04;99361.21;110171;1242;68301;-71
2023/02/10 00:14:52;;;;;;;46.80;23.70;;;;;;;-13.38;85.04;99364.46;110176;1244;69154;-71
2023/02/10 00:17:22;;;;;;;38.10;29.00;;;;;;;-13.40;82.06;99362.70;110165;1240;58919;-71
2023/02/10 00:19:51;;;;;;;45.00;27.10;;;;;;;-13.40;83.55;99362.52;110155;1241;58828;-71
2023/02/10 00:22:21;;;;;;;;;;;;;;;-13.42;84.46;99360.23;110187;1243;69798;-71
2023/02/10 00:24:51;;;;;;;31.20;19.40;;;;;;;-13.44;84.05;99363.33;110181;1242;69226;-71
2023/02/10 00:27:23;;;;;;;42.40;25.00;;;;;;;-13.45;86.72;99362.10;110121;1240;69415;-71
2023/02/10 00:29:53;;;;;;;42.00;23.90;;;;;;;-13.47;86.92;99359.80;110152;1242;58874;-71
2023/02/10 00:32:22;;;;;;;43.80;25.80;;;;;;;-13.50;88.22;99359.34;110132;1243;58861;-71
2023/02/10 00:34:52;;;;;;;34.40;21.20;;;;;;;-13.51;88.56;99355.55;110133;1244;68758;-72
2023/02/10 00:37:23;;;;;;;43.60;24.50;;;;;;;-13.52;88.39;99355.20;110210;1242;68500;-71
2023/02/10 00:39:55;;;;;;;41.40;25.80;;;;;;;-13.54;89.00;99352.90;110129;1240;69910;-71
2023/02/10 00:42:28;;;;;;;42.10;26.50;;;;;;;-13.56;89.52;99346.92;110172;1242;59293;-72
2023/02/10 00:44:58;;;;;;;35.80;21.70;;;;;;;-13.58;89.85;99346.77;110133;1242;58884;-71
2023/02/10 00:47:29;;;;;;;39.40;22.50;;;;;;;-13.61;89.84;99346.98;110167;1243;69620;-73
2023/02/10 00:49:59;;;;;;;49.40;26.20;;;;;;;-13.64;89.63;99352.04;110141;1242;69061;-71
2023/02/10 00:52:28;;;;;;;54.90;26.20;;;;;;;-13.66;89.35;99352.10;110168;1243;67499;-72
2023/02/10 00:54:58;;;;;;;47.50;24.10;;;;;;;-13.69;89.07;99352.92;110150;1242;59261;-71
2023/02/10 00:57:28;;;;;;;41.10;27.90;;;;;;;-13.70;89.17;99352.86;110166;1244;58930;-71
2023/02/10 00:59:57;;;;;;;43.90;25.50;;;;;;;-13.69;89.45;99355.77;110178;1240;70430;-71
2023/02/10 01:02:27;;;;;;;48.80;28.00;;;;;;;-13.66;89.87;99354.58;110130;1240;68509;-72
2023/02/10 01:04:57;;;;;;;48.10;26.00;;;;;;;-13.70;89.32;99353.70;110172;1244;67767;-71
2023/02/10 01:07:28;;;;;;;40.80;24.30;;;;;;;-13.73;89.18;99350.67;110168;1242;58925;-71
2023/02/10 01:09:58;;;;;;;45.70;26.80;;;;;;;-13.76;89.03;99344.14;110188;1242;59262;-71
2023/02/10 01:12:28;;;;;;;;;;;;;;;-13.82;87.15;99343.00;110126;1243;71533;-72
2023/02/10 01:14:58;;;;;;;42.80;24.30;;;;;;;-13.83;88.60;99343.95;110184;1241;68495;-71
2023/02/10 01:17:28;;;;;;;43.20;24.60;;;;;;;-13.89;88.06;99340.30;110166;1244;69584;-71
2023/02/10 01:19:58;;;;;;;;;;;;;;;-13.94;87.89;99338.16;109742;1241;592441;-71
2023/02/10 01:22:27;;;;;;;36.00;20.60;;;;;;;-13.97;88.36;99336.69;110156;1244;58889;-72
2023/02/10 01:24:57;;;;;;;25.80;16.30;;;;;;;-14.03;87.06;99333.52;110173;1245;70690;-72
2023/02/10 01:27:26;;;;;;;41.20;25.40;;;;;;;-14.06;83.55;99334.82;110163;1241;69779;-72
2023/02/10 01:29:56;;;;;;;43.60;24.70;;;;;;;-14.10;81.22;99326.91;110169;1241;68121;-72
2023/02/10 01:32:25;;;;;;;38.80;25.10;;;;;;;-14.14;80.54;99322.85;110174;1244;58887;-72
2023/02/10 01:34:55;;;;;;;37.40;22.70;;;;;;;-14.17;81.01;99323.02;110202;1242;58876;-72
2023/02/10 01:37:25;;;;;;;43.10;25.40;;;;;;;-14.17;80.71;99320.99;110162;1242;70690;-72
2023/02/10 01:39:55;;;;;;;38.60;20.10;;;;;;;-14.17;80.63;99317.97;110143;1244;69392;-72
2023/02/10 01:42:24;;;;;;;35.60;18.90;;;;;;;-14.19;80.46;99316.02;110087;1243;69310;-72
2023/02/10 01:44:54;;;;;;;36.50;21.60;;;;;;;-14.22;80.89;99318.39;110153;1240;59213;-72
2023/02/10 01:47:26;;;;;;;32.50;21.40;;;;;;;-14.24;82.07;99317.62;110156;1242;58868;-72
2023/02/10 01:49:56;;;;;;;35.70;21.30;;;;;;;-14.25;82.51;99321.55;110184;1240;69836;-70
2023/02/10 01:52:30;;;;;;;36.90;24.90;;;;;;;-14.25;85.76;99319.87;110175;1241;69094;-71
2023/02/10 01:55:05;;;;;;;40.30;22.40;;;;;;;-14.27;86.82;99317.93;110193;1240;69381;-71
2023/02/10 01:57:37;;;;;;;25.30;17.30;;;;;;;-14.30;87.23;99311.55;110111;1243;58911;-70
2023/02/10 02:00:08;;;;;;;39.50;20.60;;;;;;;-14.31;88.16;99306.86;110127;1243;58931;-71
2023/02/10 02:02:43;;;;;;;30.10;19.60;;;;;;;-14.27;89.39;99304.05;110114;1240;69635;-71
2023/02/10 02:05:38;;;;;;;39.30;23.50;;;;;;;-14.26;90.00;99306.77;110137;1243;69273;-71
2023/02/10 02:08:15;;;;;;;40.00;23.30;;;;;;;-14.31;88.94;99307.18;110163;1242;69292;-71
2023/02/10 02:11:10;;;;;;;36.40;21.40;;;;;;;-14.37;88.68;99308.54;110171;1242;58936;-71
2023/02/10 02:13:46;;;;;;;40.80;21.70;;;;;;;-14.41;89.38;99310.98;110087;1244;58863;-71
2023/02/10 02:16:37;;;;;;;32.80;21.10;;;;;;;-14.44;89.37;99306.97;110129;1240;69818;-71
2023/02/10 02:19:36;;;;;;;38.30;21.20;;;;;;;-14.46;89.06;99310.20;110141;1240;68484;-71
2023/02/10 02:22:30;;;;;;;32.10;19.40;;;;;;;-14.47;89.96;99307.64;110091;1244;68394;-71
2023/02/10 02:25:10;;;;;;;34.50;21.30;;;;;;;-14.48;90.33;99306.75;110112;1242;59005;-71
2023/02/10 02:28:08;;;;;;;26.20;17.40;;;;;;;-14.51;87.72;99308.59;110161;1241;58856;-72
2023/02/10 02:30:49;;;;;;;23.80;14.60;;;;;;;-14.55;83.61;99310.07;110161;1243;70495;-72
2023/02/10 02:33:29;;;;;;;34.30;19.80;;;;;;;-14.56;85.21;99309.11;110138;1241;67592;-73
2023/02/10 02:36:11;;;;;;;30.40;18.90;;;;;;;-14.54;88.54;99315.98;110156;1240;69791;-72
2023/02/10 02:38:42;;;;;;;34.20;21.10;;;;;;;-14.53;89.02;99312.84;110248;1241;58915;-72
2023/02/10 02:41:12;;;;;;;34.40;20.10;;;;;;;-14.54;89.05;99306.74;110304;1244;58921;-71
2023/02/10 02:43:42;;;;;;;28.10;16.30;;;;;;;-14.54;88.64;99310.27;110196;1242;71298;-71
2023/02/10 02:46:26;;;;;;;26.20;15.70;;;;;;;-14.56;85.03;99311.50;110178;1244;69342;-72
2023/02/10 02:49:16;;;;;;;28.90;17.70;;;;;;;-14.57;84.96;99310.95;110166;1240;69443;-72
2023/02/10 02:51:58;;;;;;;32.70;19.00;;;;;;;-14.59;84.80;99306.96;110136;1240;58928;-72
2023/02/10 02:54:42;;;;;;;30.10;18.00;;;;;;;-14.60;85.87;99309.63;110163;1243;58868;-72
2023/02/10 02:57:27;;;;;;;25.40;16.90;;;;;;;-14.60;87.78;99309.58;110080;1243;70633;-72
2023/02/10 03:00:07;;;;;;;24.30;16.10;;;;;;;-14.63;86.64;99309.28;110141;1243;68497;-72
2023/02/10 03:02:41;;;;;;;36.90;18.50;;;;;;;-14.62;87.78;99317.84;110152;1242;69447;-72
2023/02/10 03:05:18;;;;;;;46.20;23.70;;;;;;;-14.65;87.60;99319.50;110136;1242;58913;-72
2023/02/10 03:07:48;;;;;;;36.30;21.20;;;;;;;-14.75;86.60;99325.19;110128;1243;58942;-72
2023/02/10 03:10:21;;;;;;;24.30;16.90;;;;;;;-14.82;86.11;99329.60;110147;1240;70444;-72
2023/02/10 03:12:50;;;;;;;30.30;16.40;;;;;;;-14.90;86.27;99328.14;110202;1242;69216;-72
2023/02/10 03:15:20;;;;;;;;;;;;;;;-14.95;87.10;99328.39;110126;1241;68529;-72
2023/02/10 03:17:50;;;;;;;27.30;16.50;;;;;;;-14.97;87.83;99331.30;110138;1242;58891;-72
2023/02/10 03:20:20;;;;;;;29.20;17.80;;;;;;;-14.97;88.23;99331.08;110194;1241;58856;-72
2023/02/10 03:22:51;;;;;;;31.70;19.40;;;;;;;-14.99;88.39;99330.48;110149;1243;69640;-73
2023/02/10 03:25:21;;;;;;;31.30;16.00;;;;;;;-14.98;89.43;99335.20;110161;1240;67875;-72
2023/02/10 03:27:53;;;;;;;27.10;16.50;;;;;;;-14.97;89.41;99336.48;110140;1241;68393;-72
2023/02/10 03:30:23;;;;;;;34.20;20.40;;;;;;;-14.99;88.59;99328.66;110092;1243;58877;-72
2023/02/10 03:32:54;;;;;;;24.80;18.40;;;;;;;-15.02;86.13;99326.48;110110;1243;58875;-72
2023/02/10 03:35:24;;;;;;;25.10;15.40;;;;;;;-15.06;84.73;99331.58;110098;1241;70982;-73
2023/02/10 03:37:55;;;;;;;29.70;20.30;;;;;;;-15.10;86.32;99336.02;110174;1240;69272;-72
2023/02/10 03:40:24;;;;;;;31.20;19.90;;;;;;;-15.12;87.25;99335.73;110156;1242;69715;-72
2023/02/10 03:42:54;;;;;;;34.40;19.70;;;;;;;-15.13;87.40;99331.66;110134;1242;58953;-72
2023/02/10 03:45:24;;;;;;;28.70;18.20;;;;;;;-15.14;87.75;99328.40;110169;1243;58879;-72
2023/02/10 03:47:56;;;;;;;35.70;19.80;;;;;;;-15.16;87.74;99331.20;110138;1240;70619;-72
2023/02/10 03:50:26;;;;;;;34.40;21.00;;;;;;;-15.18;87.49;99326.21;110200;1245;69069;-72
2023/02/10 03:52:56;;;;;;;32.90;21.90;;;;;;;-15.22;87.00;99327.13;110179;1240;69259;-72
2023/02/10 03:55:27;;;;;;;37.60;22.40;;;;;;;-15.27;86.63;99327.16;110214;1243;58980;-72
2023/02/10 03:58:00;;;;;;;37.60;20.10;;;;;;;-15.35;85.71;99329.35;110175;1242;58926;-72
2023/02/10 04:00:31;;;;;;;41.40;27.00;;;;;;;-15.46;85.69;99328.07;110173;1244;69850;-72
2023/02/10 04:03:00;;;;;;;36.80;22.40;;;;;;;-15.51;86.00;99325.08;110211;1240;69021;-72
2023/02/10 04:05:29;;;;;;;28.60;18.80;;;;;;;-15.55;87.43;99322.00;110135;1243;69925;-75
2023/02/10 04:07:58;;;;;;;39.80;23.40;;;;;;;-15.55;87.96;99321.66;110202;1240;58864;-73
2023/02/10 04:10:28;;;;;;;31.20;19.20;;;;;;;-15.55;88.23;99324.65;110178;1244;58911;-72
2023/02/10 04:12:57;;;;;;;37.00;20.40;;;;;;;-15.56;88.12;99323.63;110172;1240;69812;-72
2023/02/10 04:15:28;;;;;;;29.60;20.40;;;;;;;-15.52;88.71;99327.98;110204;1242;69046;-71
2023/02/10 04:17:57;;;;;;;32.20;22.40;;;;;;;-15.54;88.19;99325.56;110138;1240;67621;-73
2023/02/10 04:20:27;;;;;;;32.10;20.20;;;;;;;-15.54;87.80;99323.87;110167;1240;58925;-73
2023/02/10 04:22:56;;;;;;;;;;;;;;;-15.53;88.23;99322.75;110210;1240;59005;-72
2023/02/10 04:25:26;;;;;;;34.70;18.10;;;;;;;-15.52;86.39;99324.35;110191;1243;70638;-73
2023/02/10 04:27:55;;;;;;;30.50;17.90;;;;;;;-15.52;83.48;99322.70;110198;1247;68511;-72
2023/02/10 04:30:24;;;;;;;32.00;19.00;;;;;;;-15.52;83.08;99326.70;110173;1244;69872;-74
2023/02/10 04:32:54;;;;;;;32.50;21.40;;;;;;;-15.53;83.98;99328.30;110161;1242;58936;-73
2023/02/10 04:35:24;;;;;;;23.70;14.60;;;;;;;-15.57;84.55;99328.52;110156;1243;58885;-73
2023/02/10 04:37:53;;;;;;;25.30;12.10;;;;;;;-15.61;84.81;99331.64;110108;1243;70472;-72
2023/02/10 04:40:23;;;;;;;30.50;16.40;;;;;;;-15.64;85.40;99335.36;109850;1240;69637;-73
2023/02/10 04:42:54;;;;;;;32.60;18.90;;;;;;;-15.64;86.50;99333.52;110115;1240;69216;-73
2023/02/10 04:45:23;;;;;;;29.70;16.10;;;;;;;-15.65;86.65;99336.47;109989;1246;58966;-73
2023/02/10 04:47:52;;;;;;;34.70;18.80;;;;;;;-15.67;86.90;99339.33;109967;1246;58883;-73
2023/02/10 04:50:21;;;;;;;31.50;19.70;;;;;;;-15.66;87.50;99340.73;109825;1245;70577;-73
2023/02/10 04:52:51;;;;;;;44.10;27.50;;;;;;;-15.68;87.45;99340.99;110165;1242;69216;-73
2023/02/10 04:55:20;;;;;;;33.60;24.50;;;;;;;-15.67;87.92;99344.85;110100;1244;69998;-72
2023/02/10 04:57:50;;;;;;;34.10;19.40;;;;;;;-15.72;87.43;99342.06;110188;1242;58925;-73
2023/02/10 05:00:19;;;;;;;40.50;23.40;;;;;;;-15.75;87.25;99343.23;110209;1242;58844;-73
2023/02/10 05:02:49;;;;;;;29.20;19.70;;;;;;;-15.75;87.89;99352.39;110321;1242;70510;-72
2023/02/10 05:05:20;;;;;;;43.20;23.60;;;;;;;-15.76;88.10;99349.33;110325;1241;68565;-73
2023/02/10 05:07:49;;;;;;;40.60;24.90;;;;;;;-15.76;88.13;99352.00;110270;1240;69687;-72
2023/02/10 05:10:20;;;;;;;31.80;20.80;;;;;;;-15.79;87.57;99347.31;110293;1241;58934;-72
2023/02/10 05:12:50;;;;;;;35.10;22.90;;;;;;;-15.81;87.94;99350.89;110349;1241;58955;-72
2023/02/10 05:15:19;;;;;;;35.40;22.20;;;;;;;-15.81;88.12;99348.55;110353;1242;71149;-72
2023/02/10 05:17:48;;;;;;;32.10;21.80;;;;;;;-15.82;88.14;99350.11;110338;1241;69232;-72
2023/02/10 05:20:17;;;;;;;45.80;25.40;;;;;;;-15.84;87.72;99345.14;110303;1242;69844;-72
2023/02/10 05:22:46;;;;;;;46.80;26.70;;;;;;;-15.84;88.39;99341.96;110309;1242;58977;-72
2023/02/10 05:25:16;;;;;;;39.60;20.10;;;;;;;-15.80;88.83;99340.71;110208;1242;58896;-72
2023/02/10 05:27:45;;;;;;;39.00;24.40;;;;;;;-15.81;88.28;99339.67;110318;1241;69754;-73
2023/02/10 05:30:15;;;;;;;41.50;24.10;;;;;;;-15.80;88.51;99339.60;110287;1241;68746;-72
2023/02/10 05:32:45;;;;;;;39.00;22.10;;;;;;;-15.81;87.98;99343.33;110383;1241;69841;-72
2023/02/10 05:35:14;;;;;;;26.00;18.90;;;;;;;-15.81;87.67;99342.47;110159;1250;58906;-73
2023/02/10 05:37:43;;;;;;;25.20;17.00;;;;;;;-15.81;87.48;99340.83;110234;1240;59324;-72
2023/02/10 05:40:13;;;;;;;45.70;25.40;;;;;;;-15.81;87.60;99342.33;110422;1241;71505;-71
2023/02/10 05:42:42;;;;;;;37.40;23.00;;;;;;;-15.73;89.39;99346.33;110399;1241;69199;-72
2023/02/10 05:45:11;;;;;;;43.70;25.30;;;;;;;-15.70;89.33;99348.17;110374;1242;69333;-72
2023/02/10 05:47:40;;;;;;;37.50;22.70;;;;;;;-15.66;89.30;99353.27;110289;1241;59349;-72
2023/02/10 05:50:09;;;;;;;42.00;23.50;;;;;;;-15.60;89.69;99359.80;110176;1245;58884;-72
2023/02/10 05:52:39;;;;;;;43.10;26.50;;;;;;;-15.55;89.75;99363.80;110210;1243;71097;-72
2023/02/10 05:55:07;;;;;;;47.10;26.60;;;;;;;-15.51;88.88;99364.34;110154;1244;69220;-72
2023/02/10 05:57:37;;;;;;;47.40;27.80;;;;;;;-15.49;88.18;99368.67;110254;1242;69896;-72
2023/02/10 06:00:07;;;;;;;51.90;30.20;;;;;;;-15.46;87.60;99374.69;110302;1242;58876;-72
2023/02/10 06:02:39;;;;;;;46.40;29.90;;;;;;;-15.45;86.78;99376.75;110288;1242;58956;-72
2023/02/10 06:05:09;;;;;;;64.30;39.00;;;;;;;-15.45;86.02;99374.94;110263;1242;70523;-72
2023/02/10 06:07:38;;;;;;;71.20;39.70;;;;;;;-15.47;84.99;99376.65;110274;1244;69237;-72
2023/02/10 06:10:08;;;;;;;50.60;33.40;;;;;;;-15.55;84.21;99379.32;110227;1243;68716;-73
2023/02/10 06:12:37;;;;;;;56.90;33.60;;;;;;;-15.62;83.98;99378.40;110339;1241;58835;-73
2023/02/10 06:15:07;;;;;;;60.80;36.30;;;;;;;-15.66;84.06;99385.58;110212;1242;58899;-73
2023/02/10 06:17:36;;;;;;;56.10;32.50;;;;;;;-15.62;84.73;99386.45;110212;1242;70506;-73
2023/02/10 06:20:06;;;;;;;38.40;24.40;;;;;;;-15.53;85.67;99390.52;110301;1242;69070;-73
2023/02/10 06:22:34;;;;;;;42.60;25.10;;;;;;;-15.43;85.92;99386.61;110304;1241;69875;-73
2023/02/10 06:25:04;;;;;;;58.70;34.30;;;;;;;-15.30;86.29;99386.83;110236;1241;58946;-73
2023/02/10 06:27:32;;;;;;;60.70;32.30;;;;;;;-15.20;86.19;99384.63;110297;1242;58875;-70
2023/02/10 06:30:01;;;;;;;49.90;26.20;;;;;;;-15.13;85.31;99385.89;110381;1240;69961;-71
2023/02/10 06:32:30;;;;;;;47.30;29.40;;;;;;;-15.03;85.13;99384.27;110357;1239;68474;-74
2023/02/10 06:34:59;;;;;;;52.40;31.50;;;;;;;-14.93;85.08;99390.23;110330;1242;69842;-73
2023/02/10 06:37:28;;;;;;;44.90;28.70;;;;;;;-14.84;84.96;99391.61;110427;1241;59195;-73
2023/02/10 06:39:57;;;;;;;41.90;25.60;;;;;;;-14.71;85.59;99387.30;110296;1240;58931;-72
2023/02/10 06:42:26;;;;;;;56.30;32.00;;;;;;;-14.56;85.86;99385.02;110403;1242;69830;-73
2023/02/10 06:44:54;;;;;;;49.90;30.80;;;;;;;-14.40;85.58;99387.10;110351;1244;69168;-73
2023/02/10 06:47:23;;;;;;;58.20;33.40;;;;;;;-14.22;85.81;99390.60;110347;1240;69246;-73
2023/02/10 06:49:54;;;;;;;63.60;35.40;;;;;;;-14.02;86.04;99392.39;110214;1241;58932;-73
2023/02/10 06:52:24;;;;;;;62.20;35.40;;;;;;;-13.74;85.81;99391.55;110192;1240;58854;-73
2023/02/10 06:54:53;;;;;;;58.30;35.20;;;;;;;-13.44;85.10;99385.63;110211;1243;71150;-73
2023/02/10 06:57:22;;;;;;;60.50;34.10;;;;;;;-13.14;83.61;99384.52;110275;1243;68750;-73
2023/02/10 06:59:55;;;;;;;61.00;33.70;;;;;;;-12.64;82.62;99389.23;110321;1240;69737;-72
2023/02/10 07:02:25;;;;;;;72.60;39.80;;;;;;;-12.09;80.04;99389.87;110262;1241;58880;-73
2023/02/10 07:04:53;;;;;;;72.70;39.30;;;;;;;-11.53;77.69;99390.96;110306;1242;58908;-73
2023/02/10 07:07:22;;;;;;;64.50;40.50;;;;;;;-10.95;75.15;99388.71;110192;1241;70851;-73
2023/02/10 07:09:53;;;;;;;89.40;54.30;;;;;;;-10.32;75.25;99387.30;110231;1243;69344;-73
2023/02/10 07:12:22;;;;;;;81.30;49.30;;;;;;;-9.70;73.01;99391.11;110249;1241;69127;-73
2023/02/10 07:14:52;;;;;;;124.70;68.90;;;;;;;-8.97;79.39;99384.90;110314;1241;58937;-73
2023/02/10 07:17:21;;;;;;;153.70;85.30;;;;;;;-8.29;77.23;99383.83;110208;1241;58886;-73
2023/02/10 07:19:49;;;;;;;131.20;78.60;;;;;;;-7.88;67.26;99381.27;110180;1244;69634;-73
2023/02/10 07:22:18;;;;;;;135.70;81.30;;;;;;;-7.35;65.74;99380.69;110148;1240;68561;-73
2023/02/10 07:24:47;;;;;;;106.00;62.20;;;;;;;-6.96;63.41;99378.95;110280;1240;67534;-72
2023/02/10 07:27:16;;;;;;;109.10;63.80;;;;;;;-6.39;63.07;99385.07;110169;1241;58876;-73
2023/02/10 07:29:46;;;;;;;96.30;61.70;;;;;;;-6.08;59.73;99387.38;110255;1242;58875;-73
2023/02/10 07:32:15;;;;;;;;;;;;;;;-5.44;61.39;99389.20;110236;1242;70466;-73
2023/02/10 07:34:44;;;;;;;96.40;59.20;;;;;;;-5.55;57.29;99393.35;110170;1241;70213;-73
2023/02/10 07:37:13;;;;;;;82.50;53.10;;;;;;;-5.35;57.15;99396.86;110246;1241;70368;-73
2023/02/10 07:39:42;;;;;;;95.40;60.50;;;;;;;-5.10;55.68;99392.84;110226;1242;58885;-72
2023/02/10 07:42:11;;;;;;;84.20;51.50;;;;;;;-4.87;55.10;99387.17;110305;1241;58853;-72
2023/02/10 07:44:53;;;;;;;113.10;70.40;;;;;;;-4.29;55.52;99386.40;110187;1243;70673;-71
2023/02/10 07:47:22;;;;;;;101.80;63.80;;;;;;;-3.64;57.51;99388.69;110365;1240;68527;-72
2023/02/10 07:49:53;;;;;;;94.10;61.10;;;;;;;-3.40;54.54;99384.95;110270;1241;69542;-72
2023/02/10 07:52:23;;;;;;;96.20;59.00;;;;;;;-3.18;53.68;99380.14;110175;1245;59741;-72
2023/02/10 07:54:51;;;;;;;76.00;50.60;;;;;;;-2.99;51.96;99373.07;110160;1243;59666;-72
2023/02/10 07:57:20;;;;;;;68.70;46.40;;;;;;;-2.73;53.18;99372.17;110175;1240;71271;-71
2023/02/10 07:59:49;;;;;;;59.40;40.50;;;;;;;-2.50;50.97;99370.03;110136;1245;69182;-71
2023/02/10 08:02:18;;;;;;;57.40;40.60;;;;;;;-3.00;49.45;99368.77;110156;1243;69312;-74
2023/02/10 08:04:46;;;;;;;56.20;40.40;;;;;;;-3.69;50.72;99371.88;110154;1242;59708;-71
2023/02/10 08:07:15;;;;;;;53.50;37.10;;;;;;;-3.97;50.77;99369.58;110385;1241;59682;-71
2023/02/10 08:09:44;;;;;;;61.40;38.90;;;;;;;-4.21;51.78;99371.91;110235;1242;70472;-72
2023/02/10 08:12:13;;;;;;;54.30;38.60;;;;;;;-3.89;51.56;99372.80;110166;1245;69604;-72
2023/02/10 08:14:42;;;;;;;50.60;34.30;;;;;;;-3.77;51.01;99372.46;110205;1242;69089;-72
2023/02/10 08:17:11;;;;;;;48.20;33.90;;;;;;;-3.24;50.70;99371.70;110255;1240;59739;-71
2023/02/10 08:19:40;;;;;;;44.60;33.00;;;;;;;-3.06;49.59;99374.84;110183;1243;60141;-72
2023/02/10 08:22:09;;;;;;;45.50;32.60;;;;;;;-2.51;48.64;99382.16;110177;1244;70898;-72
2023/02/10 08:24:38;;;;;;;45.80;33.70;;;;;;;-2.30;48.39;99384.41;110204;1243;69270;-72
2023/02/10 08:27:07;;;;;;;44.10;29.60;;;;;;;-2.66;48.73;99392.02;110242;1241;68772;-72
2023/02/10 08:29:38;;;;;;;37.90;26.30;;;;;;;-2.01;47.74;99398.20;110221;1241;59737;-73
2023/02/10 08:32:07;;;;;;;39.60;27.40;;;;;;;-1.36;46.73;99392.89;110185;1245;59674;-73
2023/02/10 08:34:38;;;;;;;40.70;28.20;;;;;;;-0.57;46.80;99395.00;110326;1245;71889;-74
2023/02/10 08:37:07;;;;;;;45.80;29.30;;;;;;;0.02;45.52;99392.73;110219;1242;69249;-75
2023/02/10 08:39:36;;;;;;;44.90;31.60;;;;;;;-0.89;44.89;99393.84;110222;1242;69097;-73
2023/02/10 08:42:04;;;;;;;49.50;34.10;;;;;;;-0.93;45.35;99396.19;110146;1243;59742;-73
2023/02/10 08:44:33;;;;;;;42.40;30.20;;;;;;;-0.46;44.00;99397.27;110339;1241;59689;-72
2023/02/10 08:47:03;;;;;;;46.80;33.50;;;;;;;-0.53;43.20;99400.84;110156;1241;72069;-71
2023/02/10 08:49:32;;;;;;;50.30;34.10;;;;;;;-0.72;43.67;99400.42;110240;1242;69646;-70
2023/02/10 08:52:01;;;;;;;48.50;33.60;;;;;;;-0.40;43.45;99398.30;110441;1240;69692;-72
2023/02/10 08:54:29;;;;;;;49.10;35.10;;;;;;;0.84;43.24;99392.31;110285;1241;59698;-72
2023/02/10 08:56:58;;;;;;;44.60;33.00;;;;;;;1.46;42.54;99394.54;110395;1242;59681;-72
2023/02/10 08:59:28;;;;;;;44.50;32.10;;;;;;;1.98;41.90;99388.73;110162;1245;71259;-72
2023/02/10 09:01:56;;;;;;;50.40;34.90;;;;;;;2.27;40.19;99387.32;110122;1243;69283;-72
2023/02/10 09:04:26;;;;;;;43.50;32.00;;;;;;;2.31;39.63;99387.98;110130;1244;69272;-72
2023/02/10 09:06:54;;;;;;;47.10;33.60;;;;;;;1.79;39.68;99390.92;110139;1245;60076;-72
2023/02/10 09:09:25;;;;;;;42.60;31.60;;;;;;;2.15;39.69;99380.52;110164;1245;59680;-72
2023/02/10 09:11:55;;;;;;;52.10;37.10;;;;;;;2.03;39.08;99378.04;110180;1241;72123;-72
2023/02/10 09:14:24;;;;;;;47.00;34.40;;;;;;;1.79;39.64;99380.59;110187;1242;69822;-72
2023/02/10 09:16:52;;;;;;;49.30;34.10;;;;;;;1.53;39.45;99384.34;110150;1242;69291;-72
2023/02/10 09:19:23;;;;;;;48.20;35.40;;;;;;;1.45;39.84;99377.68;110158;1241;59728;-72
2023/02/10 09:21:52;;;;;;;42.90;31.70;;;;;;;1.81;39.67;99379.21;110166;1242;59669;-72
2023/02/10 09:24:23;;;;;;;47.10;35.50;;;;;;;1.83;39.27;99376.63;110125;1244;71999;-72
2023/02/10 09:26:51;;;;;;;47.60;34.50;;;;;;;1.58;39.44;99370.91;110165;1243;69364;-71
2023/02/10 09:29:20;;;;;;;43.70;32.30;;;;;;;1.99;39.20;99377.04;110096;1247;69870;-72
2023/02/10 09:31:50;;;;;;;41.70;30.70;;;;;;;2.41;38.65;99373.45;110161;1245;59659;-72
2023/02/10 09:34:19;;;;;;;41.10;30.90;;;;;;;2.69;38.16;99367.15;110156;1242;59635;-72
2023/02/10 09:36:47;;;;;;;41.10;32.40;;;;;;;2.32;38.72;99369.38;110123;1246;71961;-72
2023/02/10 09:39:16;;;;;;;42.60;33.90;;;;;;;3.11;37.81;99366.36;110122;1243;69779;-73
2023/02/10 09:42:08;;;;;;;42.50;33.20;;;;;;;3.11;36.80;99363.06;110139;1244;68795;-71
2023/02/10 09:44:45;;;;;;;49.40;35.80;;;;;;;2.68;38.31;99357.17;110123;1242;59712;-71
2023/02/10 09:47:35;;;;;;;43.50;30.20;;;;;;;3.50;37.45;99349.30;110210;1246;59727;-73
2023/02/10 09:50:19;;;;;;;42.10;33.90;;;;;;;3.95;35.85;99338.67;110183;1244;71369;-72
2023/02/10 09:53:12;;;;;;;42.50;29.20;;;;;;;3.37;36.38;99335.70;110180;1241;69124;-71
2023/02/10 09:55:50;;;;;;;46.00;34.40;;;;;;;3.53;36.96;99340.31;110194;1245;69277;-72
2023/02/10 09:58:33;;;;;;;43.90;33.80;;;;;;;3.29;36.88;99339.27;110154;1243;59751;-71
2023/02/10 10:01:25;;;;;;;39.10;31.20;;;;;;;3.24;36.76;99335.16;110129;1240;59677;-72
2023/02/10 10:04:07;;;;;;;41.50;30.90;;;;;;;3.82;36.54;99333.18;110116;1250;71275;-72
2023/02/10 10:06:40;;;;;;;36.30;26.70;;;;;;;4.14;35.93;99331.81;110148;1242;69092;-72
2023/02/10 10:09:09;;;;;;;28.10;20.30;;;;;;;4.94;36.16;99332.62;110089;1246;67480;-71
2023/02/10 10:11:45;;;;;;;30.00;22.60;;;;;;;5.21;33.62;99330.52;110076;1252;59691;-73
2023/02/10 10:14:20;;;;;;;30.00;23.00;;;;;;;5.94;33.38;99314.39;110109;1244;59666;-72
2023/02/10 10:17:30;;;;;;;33.30;24.10;;;;;;;6.27;32.31;99306.86;110073;1245;71440;-72
2023/02/10 10:20:17;;;;;;;27.90;21.30;;;;;;;6.84;32.52;99310.70;109925;1246;69541;-72
2023/02/10 10:23:19;;;;;;;30.80;26.00;;;;;;;7.10;31.15;99310.11;110037;1251;69880;-72
2023/02/10 10:26:15;;;;;;;34.50;27.70;;;;;;;6.31;31.19;99310.89;110082;1244;59667;-72
2023/02/10 10:29:23;;;;;;;35.20;26.00;;;;;;;6.48;30.51;99314.62;110077;1245;59684;-73
2023/02/10 10:32:06;;;;;;;34.50;27.10;;;;;;;6.63;31.45;99307.98;110086;1244;71805;-72
2023/02/10 10:34:40;;;;;;;30.50;23.60;;;;;;;6.42;31.08;99304.71;110085;1241;67403;-72
2023/02/10 10:37:17;;;;;;;28.40;22.50;;;;;;;7.32;30.93;99303.09;110037;1254;70260;-72
2023/02/10 10:39:51;;;;;;;32.70;26.40;;;;;;;7.63;29.90;99297.47;110112;1247;59682;-73
2023/02/10 10:42:43;;;;;;;35.90;30.10;;;;;;;8.11;29.26;99299.94;110091;1244;59690;-74
2023/02/10 10:45:33;;;;;;;39.10;30.50;;;;;;;8.13;29.45;99296.74;110057;1241;71839;-73
2023/02/10 10:48:26;;;;;;;37.10;30.20;;;;;;;8.40;28.45;99296.89;110095;1244;69287;-72
2023/02/10 10:50:59;;;;;;;38.50;32.40;;;;;;;8.45;29.08;99289.41;110062;1243;69716;-73
2023/02/10 10:53:52;;;;;;;40.70;32.00;;;;;;;8.64;28.50;99286.35;110103;1245;59674;-73
2023/02/10 10:56:36;;;;;;;40.00;32.20;;;;;;;8.29;28.86;99277.29;110067;1242;59732;-73
2023/02/10 10:59:19;;;;;;;35.40;27.80;;;;;;;8.99;28.34;99273.80;110133;1241;71844;-73
2023/02/10 11:01:51;;;;;;;36.10;30.70;;;;;;;8.16;28.61;99276.88;110103;1243;69104;-73
2023/02/10 11:04:23;;;;;;;36.70;29.60;;;;;;;7.76;28.97;99272.20;110251;1241;68816;-71
2023/02/10 11:06:55;;;;;;;35.80;28.40;;;;;;;6.94;30.06;99272.80;110086;1246;59715;-73
2023/02/10 11:09:32;;;;;;;40.30;32.40;;;;;;;6.35;30.54;99270.06;110166;1245;59758;-72
2023/02/10 11:12:11;;;;;;;37.40;30.50;;;;;;;8.01;29.42;99265.02;110310;1245;70479;-73
2023/02/10 11:14:43;;;;;;;38.60;32.30;;;;;;;7.66;29.08;99263.56;110112;1245;69157;-71
2023/02/10 11:17:20;;;;;;;39.00;32.00;;;;;;;7.74;29.25;99266.08;110176;1242;69681;-71
2023/02/10 11:19:55;;;;;;;40.30;31.40;;;;;;;8.00;29.08;99260.02;110063;1245;59802;-72
2023/02/10 11:22:24;;;;;;;40.00;33.90;;;;;;;6.44;30.25;99265.19;110157;1245;59998;-72
2023/02/10 11:25:05;;;;;;;39.50;31.90;;;;;;;6.35;30.67;99267.32;110120;1242;71429;-74
2023/02/10 11:27:35;;;;;;;44.60;35.80;;;;;;;6.72;30.98;99268.01;110146;1245;69082;-72
2023/02/10 11:30:04;;;;;;;39.40;29.70;;;;;;;7.67;29.80;99262.84;110299;1252;69688;-72
2023/02/10 11:32:35;;;;;;;44.80;36.70;;;;;;;8.31;29.19;99258.11;110636;1244;59709;-72